Time;durP1;ratioP1;P1;durP2;ratioP2;P2;SDS_P1;SDS_P2;PMS_P1;PMS_P2;Temp;Humidity;BMP_temperature;BMP_pressure;BME280_temperature;BME280_humidity;BME280_pressure;Samples;Min_cycle;Max_cycle;Signal;HPM_P1;HPM_P2
2023/04/30 00:00:55;;;;;;;5.57;2.23;;;;;;;3.97;nan;101291.75;5009208;28;20388;-82
2023/04/30 00:03:23;;;;;;;4.60;2.50;;;;;;;4.01;nan;101294.44;5032943;28;20036;-84
2023/04/30 00:05:50;;;;;;;4.27;2.37;;;;;;;3.79;nan;101297.56;5016627;28;20067;-84
2023/04/30 00:08:17;;;;;;;2.93;1.93;;;;;;;3.79;nan;101295.81;4999497;28;20045;-84
2023/04/30 00:10:45;;;;;;;4.87;2.07;;;;;;;3.81;nan;101288.88;5028047;28;20044;-85
2023/04/30 00:13:12;;;;;;;3.77;2.43;;;;;;;3.61;nan;101288.50;5014379;28;20041;-84
2023/04/30 00:15:40;;;;;;;3.97;2.30;;;;;;;3.60;nan;101284.16;5017142;28;20033;-85
2023/04/30 00:18:07;;;;;;;4.03;1.80;;;;;;;3.65;nan;101292.97;5015569;28;20053;-84
2023/04/30 00:20:34;;;;;;;4.37;2.20;;;;;;;3.65;nan;101302.53;5023763;28;20037;-83
2023/04/30 00:23:01;;;;;;;6.23;2.20;;;;;;;3.68;nan;101307.81;5010866;28;20409;-84
2023/04/30 00:25:28;;;;;;;4.73;2.53;;;;;;;3.61;nan;101298.09;5012860;28;20046;-84
2023/04/30 00:27:55;;;;;;;3.30;2.10;;;;;;;3.51;nan;101299.66;5026602;28;20037;-84
2023/04/30 00:30:22;;;;;;;5.90;2.57;;;;;;;3.49;nan;101303.97;5043487;28;20033;-83
2023/04/30 00:32:49;;;;;;;5.73;2.27;;;;;;;3.29;nan;101305.34;5026482;28;20044;-84
2023/04/30 00:35:16;;;;;;;5.57;2.20;;;;;;;3.43;nan;101316.03;4995987;28;20045;-83
2023/04/30 00:37:43;;;;;;;5.03;2.47;;;;;;;3.38;nan;101313.34;5008429;28;20691;-85
2023/04/30 00:40:10;;;;;;;5.13;3.20;;;;;;;3.29;nan;101318.41;5014560;28;20043;-84
2023/04/30 00:42:37;;;;;;;5.57;2.70;;;;;;;3.32;nan;101321.94;5013048;28;20036;-85
2023/04/30 00:45:05;;;;;;;5.33;2.30;;;;;;;3.22;nan;101317.41;5007394;28;20043;-85
2023/04/30 00:47:32;;;;;;;4.37;2.03;;;;;;;3.13;nan;101318.94;5016740;28;20039;-84
2023/04/30 00:49:59;;;;;;;5.57;2.20;;;;;;;3.22;nan;101321.75;5010958;28;20532;-86
2023/04/30 00:52:26;;;;;;;7.33;2.67;;;;;;;3.21;nan;101328.69;5015498;28;20041;-85
2023/04/30 00:54:53;;;;;;;4.33;2.53;;;;;;;3.10;nan;101332.78;5007538;28;20041;-85
2023/04/30 00:57:21;;;;;;;4.20;2.17;;;;;;;3.19;nan;101330.38;4991342;28;20041;-84
2023/04/30 00:59:48;;;;;;;5.67;2.83;;;;;;;3.13;nan;101332.88;5015310;28;20037;-84
2023/04/30 01:02:16;;;;;;;4.47;2.07;;;;;;;3.05;nan;101337.06;5002647;28;20037;-86
2023/04/30 01:04:43;;;;;;;7.07;2.47;;;;;;;2.94;nan;101339.41;5010517;28;20138;-85
2023/04/30 01:07:10;;;;;;;7.60;2.70;;;;;;;2.94;nan;101336.81;5011852;28;20055;-86
2023/04/30 01:09:37;;;;;;;5.60;2.33;;;;;;;2.92;nan;101337.63;5016849;28;20029;-85
2023/04/30 01:12:20;;;;;;;3.27;2.07;;;;;;;2.87;nan;101339.28;5005317;28;20040;-85
2023/04/30 01:15:05;;;;;;;6.30;3.30;;;;;;;2.79;nan;101340.00;5011884;28;20042;-84
2023/04/30 01:17:32;;;;;;;5.17;2.70;;;;;;;2.68;nan;101343.19;5014963;28;20111;-84
2023/04/30 01:20:00;;;;;;;5.57;2.77;;;;;;;2.77;nan;101344.28;5013533;28;20041;-84
2023/04/30 01:22:27;;;;;;;8.80;2.83;;;;;;;2.70;nan;101341.53;4998233;28;20044;-84
2023/04/30 01:25:24;;;;;;;4.77;2.30;;;;;;;2.62;nan;101340.47;5014376;28;20514;-87
2023/04/30 01:28:00;;;;;;;5.17;2.30;;;;;;;2.73;nan;101345.06;5021949;28;20029;-84
2023/04/30 01:30:29;;;;;;;3.33;2.20;;;;;;;2.69;nan;101351.06;5014753;28;20079;-84
2023/04/30 01:32:56;;;;;;;6.70;2.10;;;;;;;2.56;nan;101359.47;5023585;28;20550;-87
2023/04/30 01:35:41;;;;;;;4.60;2.10;;;;;;;2.52;nan;101348.09;5019993;28;20063;-83
2023/04/30 01:38:11;;;;;;;;;;;;;;;2.42;nan;101351.28;5050998;28;20083;-84
2023/04/30 01:40:52;;;;;;;3.93;2.10;;;;;;;2.46;nan;101362.69;5016239;28;19920;-86
2023/04/30 01:43:48;;;;;;;5.93;2.10;;;;;;;2.40;nan;101365.16;5016186;28;20695;-84
2023/04/30 01:46:30;;;;;;;4.22;2.15;;;;;;;2.30;nan;101365.78;5013049;28;20037;-85
2023/04/30 01:49:07;;;;;;;4.83;2.47;;;;;;;2.33;nan;101364.13;5012233;28;20670;-84
2023/04/30 01:51:47;;;;;;;4.20;2.40;;;;;;;2.17;nan;101362.84;5009699;28;20041;-84
2023/04/30 01:54:20;;;;;;;5.47;2.27;;;;;;;2.18;nan;101375.03;5031252;28;20042;-84
2023/04/30 01:57:04;;;;;;;3.60;2.10;;;;;;;2.26;nan;101370.03;5024306;28;20044;-84
2023/04/30 01:59:34;;;;;;;2.95;2.08;;;;;;;2.24;nan;101387.38;5009652;28;20056;-84
2023/04/30 02:02:02;;;;;;;4.53;2.60;;;;;;;2.24;nan;101382.16;4995413;28;20051;-84
2023/04/30 02:04:29;;;;;;;5.40;3.20;;;;;;;2.20;nan;101381.19;5012330;28;20048;-84
2023/04/30 02:06:57;;;;;;;4.50;2.43;;;;;;;1.97;nan;101385.81;5019910;28;20413;-84
2023/04/30 02:09:24;;;;;;;4.00;2.33;;;;;;;1.97;nan;101384.94;5011579;28;20049;-86
2023/04/30 02:11:51;;;;;;;6.23;3.00;;;;;;;2.09;nan;101392.19;5002707;28;20063;-86
2023/04/30 02:14:18;;;;;;;4.13;2.80;;;;;;;2.07;nan;101392.16;5031036;28;20034;-85
2023/04/30 02:16:45;;;;;;;3.40;2.00;;;;;;;1.92;nan;101390.03;5032433;28;20033;-84
2023/04/30 02:19:12;;;;;;;4.60;2.77;;;;;;;1.93;nan;101396.09;5018079;28;20394;-85
2023/04/30 02:21:38;;;;;;;5.70;2.60;;;;;;;1.97;nan;101401.47;5014991;28;20049;-84
2023/04/30 02:24:05;;;;;;;6.53;2.60;;;;;;;1.84;nan;101395.88;5017478;28;20037;-88
2023/04/30 02:26:35;;;;;;;5.47;2.77;;;;;;;1.93;nan;101393.50;5014255;28;20029;-86
2023/04/30 02:29:02;;;;;;;10.30;2.80;;;;;;;1.94;nan;101405.72;5007328;28;20067;-86
2023/04/30 02:31:29;;;;;;;5.50;2.93;;;;;;;1.87;nan;101412.50;5027501;28;20067;-84
2023/04/30 02:33:56;;;;;;;5.83;2.90;;;;;;;1.80;nan;101404.47;5015922;28;20033;-85
2023/04/30 02:36:23;;;;;;;5.77;2.30;;;;;;;1.79;nan;101410.50;5019622;28;20033;-85
2023/04/30 02:38:49;;;;;;;6.60;2.93;;;;;;;1.77;nan;101415.69;5037229;28;20043;-85
2023/04/30 02:41:16;;;;;;;4.67;2.57;;;;;;;1.67;nan;101416.25;5018417;28;20043;-87
2023/04/30 02:43:43;;;;;;;5.87;2.53;;;;;;;1.60;nan;101412.63;5020241;28;20041;-84
2023/04/30 02:46:10;;;;;;;6.50;2.73;;;;;;;1.65;nan;101423.16;5020672;28;20620;-86
2023/04/30 02:48:37;;;;;;;7.07;3.17;;;;;;;1.70;nan;101413.75;4999769;28;20513;-83
2023/04/30 02:51:04;;;;;;;8.10;3.30;;;;;;;1.71;nan;101414.63;4991844;28;20044;-85
2023/04/30 02:53:31;;;;;;;6.33;3.17;;;;;;;1.66;nan;101420.59;5035146;28;20037;-85
2023/04/30 02:55:58;;;;;;;7.53;3.13;;;;;;;1.49;nan;101414.03;5055535;28;20036;-87
2023/04/30 02:58:25;;;;;;;4.57;3.03;;;;;;;1.35;nan;101416.25;5043314;28;20568;-86
2023/04/30 03:00:52;;;;;;;6.10;2.87;;;;;;;1.35;nan;101420.56;5004086;28;20515;-87
2023/04/30 03:03:19;;;;;;;5.53;3.07;;;;;;;1.48;nan;101427.00;4994016;28;20040;-85
2023/04/30 03:05:47;;;;;;;8.37;3.63;;;;;;;1.49;nan;101429.63;5013470;28;20044;-88
2023/04/30 03:08:14;;;;;;;7.13;2.60;;;;;;;1.51;nan;101430.56;5001012;28;20039;-84
2023/04/30 03:10:40;;;;;;;5.10;3.00;;;;;;;1.45;nan;101425.19;5032088;28;20047;-86
2023/04/30 03:13:07;;;;;;;8.37;3.27;;;;;;;1.44;nan;101426.03;5031892;28;20482;-85
2023/04/30 03:15:34;;;;;;;6.13;2.40;;;;;;;1.31;nan;101427.38;5014428;28;20036;-83
2023/04/30 03:18:02;;;;;;;7.53;3.33;;;;;;;1.29;nan;101428.19;5026368;28;20049;-81
2023/04/30 03:20:29;;;;;;;5.47;3.10;;;;;;;1.29;nan;101430.78;5017518;28;20586;-84
2023/04/30 03:22:56;;;;;;;5.33;2.60;;;;;;;1.33;nan;101438.72;5015025;28;20418;-82
2023/04/30 03:25:23;;;;;;;4.73;3.27;;;;;;;1.19;nan;101442.66;4997127;28;20044;-88
2023/04/30 03:27:50;;;;;;;8.47;3.10;;;;;;;1.25;nan;101441.94;5017728;28;20044;-82
2023/04/30 03:30:17;;;;;;;6.50;3.70;;;;;;;1.12;nan;101444.19;5025156;28;20044;-82
2023/04/30 03:32:44;;;;;;;5.07;2.57;;;;;;;1.11;nan;101447.63;5027145;28;20041;-81
2023/04/30 03:35:11;;;;;;;5.00;2.80;;;;;;;1.16;nan;101449.47;5010478;28;20044;-81
2023/04/30 03:37:38;;;;;;;8.03;3.77;;;;;;;1.13;nan;101451.16;5011978;28;20041;-81
2023/04/30 03:40:06;;;;;;;6.57;3.50;;;;;;;1.13;nan;101456.38;5013514;28;20045;-82
2023/04/30 03:42:33;;;;;;;6.60;3.43;;;;;;;1.20;nan;101457.44;5021731;28;20694;-82
2023/04/30 03:45:00;;;;;;;4.83;2.53;;;;;;;1.08;nan;101464.84;5030054;28;20040;-81
2023/04/30 03:47:27;;;;;;;5.13;2.97;;;;;;;1.06;nan;101458.72;5012297;28;20037;-82
2023/04/30 03:49:54;;;;;;;5.70;3.03;;;;;;;1.08;nan;101459.66;5029007;28;20041;-81
2023/04/30 03:52:21;;;;;;;7.67;3.10;;;;;;;1.07;nan;101469.19;4998576;28;20045;-81
2023/04/30 03:54:48;;;;;;;4.63;2.70;;;;;;;1.04;nan;101463.88;4995839;28;20055;-82
2023/04/30 03:57:15;;;;;;;4.77;2.80;;;;;;;1.11;nan;101468.44;5029349;28;20041;-82
2023/04/30 03:59:42;;;;;;;4.50;2.60;;;;;;;1.05;nan;101470.84;5031267;28;20045;-81
2023/04/30 04:02:09;;;;;;;5.33;3.20;;;;;;;0.99;nan;101469.78;5012595;28;20045;-83
2023/04/30 04:04:36;;;;;;;5.40;2.77;;;;;;;0.96;nan;101480.97;5010794;28;20529;-82
2023/04/30 04:07:03;;;;;;;4.60;2.83;;;;;;;0.99;nan;101482.78;5026098;28;20498;-81
2023/04/30 04:09:30;;;;;;;6.53;2.87;;;;;;;1.10;nan;101479.69;5011642;28;20044;-82
2023/04/30 04:11:57;;;;;;;4.50;2.50;;;;;;;0.98;nan;101481.03;5009190;28;20044;-82
2023/04/30 04:14:24;;;;;;;4.07;2.53;;;;;;;1.02;nan;101485.50;5023503;28;20033;-81
2023/04/30 04:16:51;;;;;;;6.03;2.70;;;;;;;1.03;nan;101489.88;5026620;28;20044;-82
2023/04/30 04:19:18;;;;;;;7.00;3.10;;;;;;;1.05;nan;101496.00;5027933;28;20040;-83
2023/04/30 04:21:44;;;;;;;3.97;2.37;;;;;;;1.03;nan;101497.66;5018670;28;20405;-82
2023/04/30 04:24:11;;;;;;;9.87;2.73;;;;;;;1.06;nan;101495.16;5030215;28;20028;-82
2023/04/30 04:26:38;;;;;;;5.47;2.70;;;;;;;1.13;nan;101499.72;5014351;28;20036;-85
2023/04/30 04:29:07;;;;;;;3.17;2.53;;;;;;;1.03;nan;101493.34;5027490;28;20033;-85
2023/04/30 04:31:34;;;;;;;4.93;3.53;;;;;;;1.05;nan;101506.41;5008875;28;20051;-86
2023/04/30 04:34:03;;;;;;;4.67;2.50;;;;;;;1.16;nan;101506.72;5012413;28;20030;-84
2023/04/30 04:36:30;;;;;;;5.13;2.60;;;;;;;1.08;nan;101509.97;5016677;28;20112;-85
2023/04/30 04:39:00;;;;;;;8.90;3.33;;;;;;;1.18;nan;101508.56;4996263;28;20063;-84
2023/04/30 04:41:28;;;;;;;4.70;2.70;;;;;;;1.48;nan;101516.41;5004134;28;20037;-83
2023/04/30 04:43:55;;;;;;;6.70;2.60;;;;;;;1.46;nan;101512.88;5012590;28;20379;-84
2023/04/30 04:46:23;;;;;;;8.00;3.43;;;;;;;1.44;nan;101508.47;5016584;28;20612;-83
2023/04/30 04:48:51;;;;;;;6.63;2.90;;;;;;;1.39;nan;101523.94;5021733;28;20051;-83
2023/04/30 04:51:19;;;;;;;8.03;3.00;;;;;;;1.54;nan;101528.75;5016977;28;20047;-87
2023/04/30 04:53:46;;;;;;;4.90;2.90;;;;;;;1.50;nan;101525.16;5027848;28;20059;-84
2023/04/30 04:56:13;;;;;;;3.60;2.50;;;;;;;1.51;nan;101528.63;4991636;28;20056;-85
2023/04/30 04:58:41;;;;;;;7.17;3.10;;;;;;;1.66;nan;101529.97;5022589;28;20410;-83
2023/04/30 05:01:09;;;;;;;7.23;3.00;;;;;;;1.74;nan;101530.22;5013228;28;20053;-84
2023/04/30 05:03:36;;;;;;;19.40;8.13;;;;;;;1.90;nan;101531.53;5014176;28;20042;-83
2023/04/30 05:06:04;;;;;;;13.73;7.37;;;;;;;2.03;nan;101533.66;5004236;28;20512;-84
2023/04/30 05:08:31;;;;;;;11.10;5.00;;;;;;;2.21;nan;101531.56;5007466;28;20038;-83
2023/04/30 05:10:58;;;;;;;19.47;15.93;;;;;;;2.16;nan;101538.34;5036771;28;20047;-84
2023/04/30 05:13:28;;;;;;;17.13;11.10;;;;;;;2.31;nan;101539.63;4997012;28;20047;-88
2023/04/30 05:15:55;;;;;;;9.67;6.83;;;;;;;2.35;nan;101537.13;5002731;28;20144;-83
2023/04/30 05:18:22;;;;;;;9.87;5.00;;;;;;;2.49;nan;101543.59;5015532;28;20045;-85
2023/04/30 05:20:49;;;;;;;12.40;6.63;;;;;;;2.52;nan;101548.00;5023534;28;20051;-85
2023/04/30 05:23:16;;;;;;;9.10;4.80;;;;;;;2.70;nan;101553.72;5009554;28;20037;-84
2023/04/30 05:25:44;;;;;;;5.87;3.30;;;;;;;2.89;nan;101562.03;5012217;28;20041;-84
2023/04/30 05:28:11;;;;;;;6.77;3.60;;;;;;;3.16;nan;101567.91;5016731;28;20041;-84
2023/04/30 05:30:38;;;;;;;12.77;5.17;;;;;;;3.27;nan;101566.44;5020356;28;20399;-84
2023/04/30 05:33:05;;;;;;;6.30;3.50;;;;;;;3.56;nan;101559.28;5015965;28;20033;-84
2023/04/30 05:35:34;;;;;;;12.10;3.60;;;;;;;3.67;nan;101565.63;5018896;28;20037;-85
2023/04/30 05:38:02;;;;;;;7.70;3.27;;;;;;;3.72;nan;101560.50;5014391;28;20037;-88
2023/04/30 05:40:29;;;;;;;7.93;3.20;;;;;;;3.86;nan;101568.63;5020270;28;20125;-85
2023/04/30 05:42:56;;;;;;;6.83;3.23;;;;;;;3.88;nan;101573.06;5032072;28;20068;-86
2023/04/30 05:45:23;;;;;;;8.30;3.90;;;;;;;4.19;nan;101568.44;5033682;28;20137;-84
2023/04/30 05:47:51;;;;;;;7.03;3.00;;;;;;;4.63;nan;101569.31;5027506;28;20490;-84
2023/04/30 05:50:18;;;;;;;7.80;3.20;;;;;;;5.06;nan;101572.69;5012659;28;20039;-85
2023/04/30 05:52:45;;;;;;;7.17;2.80;;;;;;;5.65;nan;101575.34;5016282;28;20037;-85
2023/04/30 05:55:14;;;;;;;6.40;3.67;;;;;;;7.14;nan;101568.28;5019517;28;20036;-84
2023/04/30 05:57:41;;;;;;;6.90;2.63;;;;;;;7.63;nan;101571.25;5020873;28;20439;-85
2023/04/30 06:00:09;;;;;;;6.40;2.67;;;;;;;8.13;nan;101573.28;5022486;28;20112;-85
2023/04/30 06:02:36;;;;;;;9.27;3.10;;;;;;;7.84;nan;101573.16;5015012;28;20521;-85
2023/04/30 06:05:04;;;;;;;6.73;2.60;;;;;;;7.33;nan;101575.47;5016628;28;20124;-86
2023/04/30 06:07:49;;;;;;;7.57;2.50;;;;;;;7.32;nan;101588.59;5013305;28;20598;-84
2023/04/30 06:10:16;;;;;;;8.83;3.23;;;;;;;7.56;nan;101585.22;5029466;28;20048;-84
2023/04/30 06:12:43;;;;;;;7.37;3.77;;;;;;;7.30;nan;101588.56;5033044;28;20040;-84
2023/04/30 06:15:12;;;;;;;8.03;2.97;;;;;;;7.49;nan;101593.97;5001108;28;20034;-83
2023/04/30 06:17:43;;;;;;;7.43;2.30;;;;;;;8.90;nan;101584.91;5028416;28;20097;-84
2023/04/30 06:20:10;;;;;;;8.47;2.83;;;;;;;9.98;nan;101578.66;5030886;28;20119;-84
2023/04/30 06:22:39;;;;;;;8.27;3.08;;;;;;;11.66;nan;101578.41;5018492;28;20153;-86
2023/04/30 06:25:07;;;;;;;5.07;2.58;;;;;;;12.67;nan;101574.56;5039488;28;20116;-87
2023/04/30 06:27:34;;;;;;;5.80;2.33;;;;;;;12.92;nan;101567.97;5022055;28;20543;-85
2023/04/30 06:30:01;;;;;;;5.93;2.50;;;;;;;13.26;nan;101570.09;5027747;28;20125;-85
2023/04/30 06:32:29;;;;;;;5.35;2.45;;;;;;;13.29;nan;101580.69;5017228;28;20120;-85
2023/04/30 06:34:57;;;;;;;3.72;2.25;;;;;;;13.65;nan;101580.94;5032617;28;20032;-87
2023/04/30 06:37:24;;;;;;;5.30;2.72;;;;;;;14.00;nan;101596.19;5015777;28;20044;-85
2023/04/30 06:39:54;;;;;;;6.60;2.75;;;;;;;13.41;nan;101584.91;5003099;28;20486;-86
2023/04/30 06:42:21;;;;;;;5.57;2.97;;;;;;;12.55;nan;101598.59;5014172;28;20510;-89
2023/04/30 06:44:48;;;;;;;8.20;2.63;;;;;;;12.16;nan;101597.31;5016468;28;20045;-86
2023/04/30 06:47:15;;;;;;;6.45;3.00;;;;;;;11.87;nan;101600.31;5023568;28;20063;-86
2023/04/30 06:49:42;;;;;;;5.72;2.15;;;;;;;11.16;nan;101603.56;5015516;28;20036;-88
2023/04/30 06:52:09;;;;;;;7.00;2.33;;;;;;;11.04;nan;101600.16;5019628;28;20047;-87
2023/04/30 06:54:37;;;;;;;4.68;2.20;;;;;;;11.10;nan;101603.63;5020025;28;20520;-86
2023/04/30 06:57:04;;;;;;;5.88;2.75;;;;;;;10.67;nan;101603.00;5022705;28;20530;-88
2023/04/30 06:59:31;;;;;;;6.45;2.33;;;;;;;10.07;nan;101605.03;5018460;28;20034;-84
2023/04/30 07:02:00;;;;;;;6.30;2.92;;;;;;;10.46;nan;101609.31;5030023;28;20490;-86
2023/04/30 07:04:27;;;;;;;5.80;2.10;;;;;;;10.80;nan;101607.34;5017825;28;20033;-86
2023/04/30 07:06:54;;;;;;;3.72;2.03;;;;;;;10.94;nan;101613.44;5004071;28;20052;-86
2023/04/30 07:09:24;;;;;;;5.68;2.15;;;;;;;10.77;nan;101610.03;5022117;28;20059;-86
2023/04/30 07:11:52;;;;;;;6.60;2.15;;;;;;;10.83;nan;101606.44;5035825;28;20454;-89
2023/04/30 07:14:21;;;;;;;4.32;2.83;;;;;;;10.52;nan;101606.66;5002574;28;20048;-85
2023/04/30 07:16:49;;;;;;;3.53;1.80;;;;;;;10.47;nan;101604.91;4993330;28;20129;-86
2023/04/30 07:19:16;;;;;;;5.45;2.17;;;;;;;10.61;nan;101611.88;5017389;28;20108;-90
2023/04/30 07:21:43;;;;;;;3.35;1.98;;;;;;;10.69;nan;101604.78;5025358;28;20128;-86
2023/04/30 07:24:11;;;;;;;4.72;2.10;;;;;;;10.44;nan;101597.88;5025495;28;20047;-86
2023/04/30 07:26:38;;;;;;;6.30;2.25;;;;;;;10.91;nan;101604.63;5021169;28;20040;-86
2023/04/30 07:29:05;;;;;;;2.72;1.75;;;;;;;10.80;nan;101610.00;5019812;28;20128;-84
2023/04/30 07:31:34;;;;;;;4.70;2.25;;;;;;;10.65;nan;101612.72;5005743;28;20037;-84
2023/04/30 07:34:01;;;;;;;4.50;1.88;;;;;;;11.03;nan;101615.13;5035037;28;20044;-86
2023/04/30 07:36:28;;;;;;;4.13;2.28;;;;;;;11.15;nan;101617.69;5022620;28;20104;-86
2023/04/30 07:38:55;;;;;;;4.35;2.33;;;;;;;11.30;nan;101621.97;4999813;28;20045;-86
2023/04/30 07:41:23;;;;;;;4.20;1.55;;;;;;;10.48;nan;101620.75;5043917;28;20045;-84
2023/04/30 07:43:52;;;;;;;4.82;2.10;;;;;;;10.85;nan;101623.19;5013187;28;20042;-86
2023/04/30 07:46:20;;;;;;;5.28;2.10;;;;;;;11.32;nan;101611.38;5020257;28;20542;-85
2023/04/30 07:48:47;;;;;;;5.28;2.63;;;;;;;11.66;nan;101611.94;5018455;28;20044;-84
2023/04/30 07:51:14;;;;;;;3.72;2.13;;;;;;;11.83;nan;101626.81;5027357;28;20041;-84
2023/04/30 07:53:41;;;;;;;3.67;2.13;;;;;;;11.71;nan;101621.63;5009920;28;20052;-85
2023/04/30 07:56:08;;;;;;;4.38;1.92;;;;;;;11.90;nan;101622.34;4993306;28;20041;-83
2023/04/30 07:58:35;;;;;;;3.90;2.22;;;;;;;11.90;nan;101622.34;5011215;28;20033;-83
2023/04/30 08:01:02;;;;;;;10.45;2.30;;;;;;;11.97;nan;101628.44;5030375;28;20048;-86
2023/04/30 08:03:29;;;;;;;3.08;1.80;;;;;;;11.70;nan;101625.16;5009849;28;20040;-85
2023/04/30 08:05:56;;;;;;;3.10;1.77;;;;;;;11.35;nan;101625.47;5013727;28;20029;-84
2023/04/30 08:08:23;;;;;;;3.78;1.83;;;;;;;11.33;nan;101636.94;5017868;28;20041;-85
2023/04/30 08:10:50;;;;;;;3.55;2.22;;;;;;;11.06;nan;101625.69;4996879;28;20412;-84
2023/04/30 08:13:19;;;;;;;3.30;2.03;;;;;;;10.72;nan;101630.31;5026000;28;20041;-85
2023/04/30 08:15:46;;;;;;;3.55;2.00;;;;;;;11.21;nan;101636.16;5010248;28;20033;-86
2023/04/30 08:18:13;;;;;;;3.50;2.00;;;;;;;11.51;nan;101636.78;5008769;28;20056;-83
2023/04/30 08:20:40;;;;;;;4.65;2.10;;;;;;;11.79;nan;101624.19;5026724;28;20409;-85
2023/04/30 08:23:07;;;;;;;4.57;1.98;;;;;;;11.97;nan;101634.63;5014037;28;20048;-83
2023/04/30 08:25:35;;;;;;;4.47;2.35;;;;;;;11.69;nan;101634.00;5015233;28;20512;-84
2023/04/30 08:28:03;;;;;;;6.10;2.35;;;;;;;11.96;nan;101634.63;5027534;28;20054;-85
2023/04/30 08:30:30;;;;;;;4.13;2.03;;;;;;;11.92;nan;101640.84;5008929;28;20040;-85
2023/04/30 08:32:58;;;;;;;3.22;1.73;;;;;;;11.97;nan;101639.03;5001495;28;20041;-85
2023/04/30 08:35:25;;;;;;;4.00;1.88;;;;;;;12.14;nan;101641.50;5013843;28;20029;-87
2023/04/30 08:37:52;;;;;;;3.00;1.88;;;;;;;11.10;nan;101635.38;5029754;28;20037;-86
2023/04/30 08:40:20;;;;;;;6.90;2.35;;;;;;;11.71;nan;101632.19;5027940;28;20041;-85
2023/04/30 08:42:56;;;;;;;6.60;2.00;;;;;;;11.51;nan;101642.06;5019726;28;20055;-85
2023/04/30 08:45:23;;;;;;;4.13;1.80;;;;;;;11.74;nan;101644.53;5027995;28;20500;-86
2023/04/30 08:47:51;;;;;;;4.85;1.80;;;;;;;11.76;nan;101640.09;5027761;28;20041;-84
2023/04/30 08:50:18;;;;;;;4.65;2.45;;;;;;;12.19;nan;101626.41;4994755;28;20128;-84
2023/04/30 08:52:45;;;;;;;7.22;1.90;;;;;;;12.49;nan;101634.00;5013727;28;20025;-82
2023/04/30 08:55:12;;;;;;;3.72;1.80;;;;;;;12.39;nan;101629.72;5008706;28;20536;-85
2023/04/30 08:57:39;;;;;;;4.97;2.20;;;;;;;12.78;nan;101636.28;5044350;28;20037;-85
2023/04/30 09:00:07;;;;;;;5.35;2.03;;;;;;;13.08;nan;101645.53;5010575;28;20534;-86
2023/04/30 09:02:38;;;;;;;4.25;2.22;;;;;;;13.35;nan;101649.56;5013321;28;20045;-85
2023/04/30 09:05:11;;;;;;;4.97;2.13;;;;;;;12.59;nan;101645.34;5017773;28;20394;-84
2023/04/30 09:07:43;;;;;;;5.18;2.10;;;;;;;12.76;nan;101646.00;5017950;28;20033;-84
2023/04/30 09:10:27;;;;;;;4.20;1.90;;;;;;;13.22;nan;101642.72;5017075;28;20059;-87
2023/04/30 09:13:12;;;;;;;4.55;2.40;;;;;;;13.01;nan;101643.00;5013241;28;20047;-85
2023/04/30 09:15:44;;;;;;;3.40;2.20;;;;;;;13.37;nan;101639.84;5012732;28;20044;-85
2023/04/30 09:18:16;;;;;;;5.25;2.20;;;;;;;12.87;nan;101641.44;5022455;28;20402;-85
2023/04/30 09:21:00;;;;;;;5.30;2.42;;;;;;;12.59;nan;101658.59;5031631;28;20033;-84
2023/04/30 09:23:28;;;;;;;4.00;1.80;;;;;;;13.00;nan;101647.44;5003540;28;20045;-88
2023/04/30 09:25:56;;;;;;;4.93;2.40;;;;;;;13.16;nan;101646.31;5020707;28;20033;-86
2023/04/30 09:28:25;;;;;;;3.40;1.88;;;;;;;13.31;nan;101642.59;5016382;28;20318;-85
2023/04/30 09:30:52;;;;;;;5.65;2.67;;;;;;;13.82;nan;101639.94;5028861;28;22080;-84
2023/04/30 09:33:20;;;;;;;5.72;2.22;;;;;;;13.78;nan;101639.09;5026790;28;20041;-85
2023/04/30 09:35:48;;;;;;;6.80;2.45;;;;;;;13.52;nan;101644.88;5007177;28;20195;-82
2023/04/30 09:38:29;;;;;;;3.45;2.15;;;;;;;14.28;nan;101644.34;5030993;28;20037;-84
2023/04/30 09:41:00;;;;;;;4.05;2.25;;;;;;;14.17;nan;101636.59;5013030;28;20356;-84
2023/04/30 09:43:28;;;;;;;3.53;2.15;;;;;;;14.62;nan;101641.91;5016329;28;20037;-87
2023/04/30 09:45:57;;;;;;;5.97;2.17;;;;;;;14.68;nan;101638.25;5016647;28;20047;-85
2023/04/30 09:48:28;;;;;;;5.43;2.42;;;;;;;14.45;nan;101641.34;5011939;28;20037;-84
2023/04/30 09:50:55;;;;;;;4.68;2.78;;;;;;;14.05;nan;101626.22;5033805;28;20045;-86
2023/04/30 09:53:23;;;;;;;5.13;2.55;;;;;;;14.42;nan;101630.78;5014847;28;20033;-87
2023/04/30 09:55:50;;;;;;;4.13;2.00;;;;;;;14.33;nan;101627.41;5019223;28;20056;-85
2023/04/30 09:58:21;;;;;;;5.93;2.58;;;;;;;14.69;nan;101624.03;5014460;28;20037;-82
2023/04/30 10:00:49;;;;;;;5.35;2.33;;;;;;;14.45;nan;101620.97;5015038;28;20037;-85
2023/04/30 10:03:17;;;;;;;4.00;2.38;;;;;;;14.81;nan;101623.78;5014128;28;20491;-85
2023/04/30 10:05:46;;;;;;;5.95;2.05;;;;;;;14.89;nan;101637.78;4994921;28;20061;-86
2023/04/30 10:08:21;;;;;;;5.35;1.80;;;;;;;14.74;nan;101622.16;5009646;28;20045;-85
2023/04/30 10:10:55;;;;;;;3.35;2.10;;;;;;;14.73;nan;101629.25;5029060;28;20051;-86
2023/04/30 10:13:25;;;;;;;3.78;2.13;;;;;;;14.50;nan;101624.44;5016119;28;20047;-87
2023/04/30 10:15:58;;;;;;;5.28;2.22;;;;;;;14.21;nan;101626.78;4996193;28;20406;-85
2023/04/30 10:18:36;;;;;;;3.33;2.00;;;;;;;14.14;nan;101620.72;5035065;28;20047;-86
2023/04/30 10:21:11;;;;;;;3.67;1.90;;;;;;;14.39;nan;101631.75;5022524;28;20493;-90
2023/04/30 10:23:38;;;;;;;5.80;2.47;;;;;;;14.67;nan;101621.41;5019508;28;20033;-89
2023/04/30 10:26:05;;;;;;;2.88;1.63;;;;;;;14.41;nan;101623.72;5034728;28;20033;-86
2023/04/30 10:28:33;;;;;;;5.25;1.90;;;;;;;14.39;nan;101609.59;4998560;28;20043;-87
2023/04/30 10:31:00;;;;;;;2.88;1.67;;;;;;;14.44;nan;101608.56;5018972;28;20037;-88
2023/04/30 10:33:48;;;;;;;3.65;2.25;;;;;;;14.43;nan;101614.81;5020778;28;20047;-84
2023/04/30 10:36:25;;;;;;;2.55;1.77;;;;;;;14.99;nan;101607.38;5037522;28;20501;-84
2023/04/30 10:38:53;;;;;;;3.25;1.88;;;;;;;14.77;nan;101608.78;5005228;28;20187;-90
2023/04/30 10:41:20;;;;;;;4.07;1.98;;;;;;;15.00;nan;101597.59;5041166;28;20463;-82
2023/04/30 10:43:48;;;;;;;3.85;1.85;;;;;;;15.05;nan;101609.91;5014313;28;20116;-82
2023/04/30 10:46:22;;;;;;;5.13;1.85;;;;;;;15.04;nan;101610.78;5030005;28;20085;-81
2023/04/30 10:48:53;;;;;;;2.78;1.52;;;;;;;15.19;nan;101607.75;5034887;28;20698;-81
2023/04/30 10:51:20;;;;;;;4.28;1.95;;;;;;;15.23;nan;101605.03;5022921;28;20044;-81
2023/04/30 10:53:50;;;;;;;3.65;1.67;;;;;;;15.57;nan;101594.41;5015591;28;20112;-80
2023/04/30 10:56:31;;;;;;;2.45;1.55;;;;;;;15.12;nan;101603.50;5032326;28;20108;-83
2023/04/30 10:59:01;;;;;;;2.83;1.92;;;;;;;15.35;nan;101597.59;5035104;28;20850;-81
2023/04/30 11:01:28;;;;;;;3.40;1.83;;;;;;;15.21;nan;101600.59;5008396;28;20127;-81
2023/04/30 11:04:10;;;;;;;7.82;2.08;;;;;;;14.81;nan;101597.16;5015908;28;20093;-82
2023/04/30 11:06:53;;;;;;;2.65;2.17;;;;;;;15.29;nan;101595.09;5034857;28;20116;-82
2023/04/30 11:09:43;;;;;;;3.47;2.13;;;;;;;15.77;nan;101600.09;5037109;28;20115;-81
2023/04/30 11:12:15;;;;;;;2.78;1.45;;;;;;;15.67;nan;101596.81;5018707;28;20093;-83
2023/04/30 11:14:43;;;;;;;4.47;1.90;;;;;;;14.84;nan;101591.75;5038573;28;20111;-82
2023/04/30 11:17:13;;;;;;;3.65;1.80;;;;;;;14.82;nan;101598.91;5034422;28;20033;-82
2023/04/30 11:19:50;;;;;;;4.75;1.90;;;;;;;15.12;nan;101587.53;5031231;28;20046;-82
2023/04/30 11:22:23;;;;;;;4.65;2.10;;;;;;;15.28;nan;101582.69;5016054;28;20043;-85
2023/04/30 11:24:59;;;;;;;4.45;2.10;;;;;;;14.53;nan;101579.16;5035829;28;20037;-84
2023/04/30 11:27:28;;;;;;;3.20;2.10;;;;;;;14.34;nan;101583.97;5024695;28;20405;-85
2023/04/30 11:30:00;;;;;;;2.78;1.80;;;;;;;15.00;nan;101582.50;4997972;28;20045;-84
2023/04/30 11:32:33;;;;;;;4.25;2.13;;;;;;;15.07;nan;101585.91;5023424;28;20089;-85
2023/04/30 11:35:05;;;;;;;3.78;2.00;;;;;;;15.52;nan;101577.66;5033048;28;20064;-82
2023/04/30 11:37:34;;;;;;;4.72;2.13;;;;;;;15.21;nan;101583.75;5044815;28;20102;-83
2023/04/30 11:40:07;;;;;;;4.20;1.90;;;;;;;14.24;nan;101578.88;5043984;28;20046;-84
2023/04/30 11:42:34;;;;;;;4.13;1.90;;;;;;;14.74;nan;101584.91;5050109;28;20093;-84
2023/04/30 11:45:06;;;;;;;4.70;2.00;;;;;;;15.11;nan;101574.25;5015065;28;20049;-84
2023/04/30 11:48:00;;;;;;;3.60;1.70;;;;;;;15.37;nan;101578.94;5026671;28;20739;-83
2023/04/30 11:50:32;;;;;;;4.68;2.83;;;;;;;14.88;nan;101588.09;5038698;28;20153;-84
2023/04/30 11:53:04;;;;;;;4.63;2.17;;;;;;;15.31;nan;101585.31;5027352;28;20068;-84
2023/04/30 11:55:31;;;;;;;5.05;2.55;;;;;;;14.54;nan;101575.59;5028954;28;20076;-84